sensor_id;sensor_type;location;lat;lon;timestamp;pressure;altitude;pressure_sealevel;temperature;humidity
66398;BME280;54877;51.504;3.894;2023-03-23T00:01:51;100179.22;;;14.72;64.08
66398;BME280;54877;51.504;3.894;2023-03-23T00:04:17;100169.81;;;14.79;63.92
66398;BME280;54877;51.504;3.894;2023-03-23T00:06:42;100183.59;;;14.84;63.48
66398;BME280;54877;51.504;3.894;2023-03-23T00:09:10;100167.59;;;14.73;63.71
66398;BME280;54877;51.504;3.894;2023-03-23T00:11:36;100172.34;;;14.81;63.82
66398;BME280;54877;51.504;3.894;2023-03-23T00:14:02;100166.75;;;14.84;63.66
66398;BME280;54877;51.504;3.894;2023-03-23T00:16:31;100168.09;;;14.78;63.80
66398;BME280;54877;51.504;3.894;2023-03-23T00:18:59;100171.00;;;14.86;63.59
66398;BME280;54877;51.504;3.894;2023-03-23T00:21:32;100171.50;;;14.80;63.75
66398;BME280;54877;51.504;3.894;2023-03-23T00:24:04;100169.31;;;14.85;63.62
66398;BME280;54877;51.504;3.894;2023-03-23T00:26:35;100181.88;;;14.72;64.04
66398;BME280;54877;51.504;3.894;2023-03-23T00:29:05;100168.81;;;14.69;64.14
66398;BME280;54877;51.504;3.894;2023-03-23T00:31:32;100170.28;;;14.73;64.25
66398;BME280;54877;51.504;3.894;2023-03-23T00:34:00;100175.13;;;14.79;64.08
66398;BME280;54877;51.504;3.894;2023-03-23T00:36:28;100176.69;;;14.70;64.30
66398;BME280;54877;51.504;3.894;2023-03-23T00:39:00;100167.72;;;14.72;64.04
66398;BME280;54877;51.504;3.894;2023-03-23T00:41:28;100168.09;;;14.78;64.12
66398;BME280;54877;51.504;3.894;2023-03-23T00:43:55;100167.59;;;14.73;64.27
66398;BME280;54877;51.504;3.894;2023-03-23T00:46:21;100159.13;;;14.68;64.48
66398;BME280;54877;51.504;3.894;2023-03-23T00:48:47;100154.97;;;14.64;64.67
66398;BME280;54877;51.504;3.894;2023-03-23T00:51:13;100168.94;;;14.67;64.51
66398;BME280;54877;51.504;3.894;2023-03-23T00:53:38;100167.81;;;14.59;64.76
66398;BME280;54877;51.504;3.894;2023-03-23T00:56:05;100147.00;;;14.64;64.67
66398;BME280;54877;51.504;3.894;2023-03-23T00:58:32;100145.56;;;14.71;64.76
66398;BME280;54877;51.504;3.894;2023-03-23T01:00:57;100143.84;;;14.59;65.01
66398;BME280;54877;51.504;3.894;2023-03-23T01:03:23;100139.84;;;14.64;64.89
66398;BME280;54877;51.504;3.894;2023-03-23T01:05:50;100144.31;;;14.64;64.87
66398;BME280;54877;51.504;3.894;2023-03-23T01:08:17;100135.38;;;14.65;65.08
66398;BME280;54877;51.504;3.894;2023-03-23T01:10:43;100130.06;;;14.65;64.96
66398;BME280;54877;51.504;3.894;2023-03-23T01:13:09;100130.75;;;14.56;65.22
66398;BME280;54877;51.504;3.894;2023-03-23T01:15:35;100122.19;;;14.63;65.04
66398;BME280;54877;51.504;3.894;2023-03-23T01:18:00;100124.72;;;14.65;65.04
66398;BME280;54877;51.504;3.894;2023-03-23T01:20:27;100117.69;;;14.64;65.08
66398;BME280;54877;51.504;3.894;2023-03-23T01:22:54;100125.91;;;14.61;65.11
66398;BME280;54877;51.504;3.894;2023-03-23T01:25:25;100122.44;;;14.60;65.08
66398;BME280;54877;51.504;3.894;2023-03-23T01:28:00;100111.75;;;14.49;65.28
66398;BME280;54877;51.504;3.894;2023-03-23T01:30:25;100095.03;;;14.58;65.08
66398;BME280;54877;51.504;3.894;2023-03-23T01:32:52;100105.59;;;14.60;65.07
66398;BME280;54877;51.504;3.894;2023-03-23T01:35:18;100115.00;;;14.53;65.26
66398;BME280;54877;51.504;3.894;2023-03-23T01:37:44;100118.88;;;14.49;65.37
66398;BME280;54877;51.504;3.894;2023-03-23T01:40:09;100117.91;;;14.61;65.01
66398;BME280;54877;51.504;3.894;2023-03-23T01:42:36;100112.09;;;14.45;65.34
66398;BME280;54877;51.504;3.894;2023-03-23T01:47:51;100135.22;;;14.55;65.25
66398;BME280;54877;51.504;3.894;2023-03-23T01:50:18;100133.03;;;14.38;65.61
66398;BME280;54877;51.504;3.894;2023-03-23T01:52:48;100126.41;;;14.44;65.41
66398;BME280;54877;51.504;3.894;2023-03-23T01:55:14;100124.31;;;14.47;65.68
66398;BME280;54877;51.504;3.894;2023-03-23T01:57:40;100123.81;;;14.42;65.57
66398;BME280;54877;51.504;3.894;2023-03-23T02:00:07;100118.41;;;14.44;65.26
66398;BME280;54877;51.504;3.894;2023-03-23T02:02:44;100119.38;;;14.54;65.34
66398;BME280;54877;51.504;3.894;2023-03-23T02:05:13;100116.72;;;14.54;65.22
66398;BME280;54877;51.504;3.894;2023-03-23T02:07:42;100121.09;;;14.55;65.37
66398;BME280;54877;51.504;3.894;2023-03-23T02:10:09;100118.19;;;14.58;65.20
66398;BME280;54877;51.504;3.894;2023-03-23T02:12:35;100113.94;;;14.66;65.03
66398;BME280;54877;51.504;3.894;2023-03-23T02:15:00;100108.34;;;14.58;65.22
66398;BME280;54877;51.504;3.894;2023-03-23T02:28:37;100107.25;;;14.61;65.20
66398;BME280;54877;51.504;3.894;2023-03-23T02:31:19;100107.63;;;14.45;65.44
66398;BME280;54877;51.504;3.894;2023-03-23T02:34:08;100108.56;;;14.44;65.60
66398;BME280;54877;51.504;3.894;2023-03-23T02:36:50;100100.50;;;14.57;65.06
66398;BME280;54877;51.504;3.894;2023-03-23T02:42:02;100104.13;;;14.56;65.01
66398;BME280;54877;51.504;3.894;2023-03-23T02:44:31;100098.31;;;14.51;64.93
66398;BME280;54877;51.504;3.894;2023-03-23T02:46:59;100104.88;;;14.58;64.90
66398;BME280;54877;51.504;3.894;2023-03-23T02:49:27;100115.53;;;14.58;64.63
66398;BME280;54877;51.504;3.894;2023-03-23T02:51:56;100104.59;;;14.50;64.78
66398;BME280;54877;51.504;3.894;2023-03-23T02:54:24;100107.75;;;14.55;64.82
66398;BME280;54877;51.504;3.894;2023-03-23T02:56:52;100111.63;;;14.51;64.96
66398;BME280;54877;51.504;3.894;2023-03-23T02:59:19;100111.63;;;14.51;64.72
66398;BME280;54877;51.504;3.894;2023-03-23T03:01:46;100104.34;;;14.53;64.78
66398;BME280;54877;51.504;3.894;2023-03-23T03:04:17;100109.69;;;14.53;64.87
66398;BME280;54877;51.504;3.894;2023-03-23T03:12:43;100095.78;;;14.60;64.37
66398;BME280;54877;51.504;3.894;2023-03-23T03:18:38;100113.19;;;14.42;64.46
66398;BME280;54877;51.504;3.894;2023-03-23T03:20:53;100115.75;;;14.44;64.34
66398;BME280;54877;51.504;3.894;2023-03-23T03:23:25;100122.00;;;14.32;64.41
66398;BME280;54877;51.504;3.894;2023-03-23T03:25:53;100134.84;;;14.38;64.34
66398;BME280;54877;51.504;3.894;2023-03-23T03:28:22;100122.16;;;14.41;64.13
66398;BME280;54877;51.504;3.894;2023-03-23T03:30:55;100124.91;;;14.40;63.93
66398;BME280;54877;51.504;3.894;2023-03-23T03:33:28;100123.22;;;14.39;64.07
66398;BME280;54877;51.504;3.894;2023-03-23T03:35:57;100128.06;;;14.45;64.15
66398;BME280;54877;51.504;3.894;2023-03-23T03:38:25;100125.56;;;14.54;63.67
66398;BME280;54877;51.504;3.894;2023-03-23T03:40:51;100119.13;;;14.46;63.86
66398;BME280;54877;51.504;3.894;2023-03-23T03:43:18;100121.56;;;14.49;63.91
66398;BME280;54877;51.504;3.894;2023-03-23T03:45:43;100126.16;;;14.47;63.85
66398;BME280;54877;51.504;3.894;2023-03-23T03:48:09;100122.53;;;14.59;63.71
66398;BME280;54877;51.504;3.894;2023-03-23T03:50:35;100130.41;;;14.49;63.90
66398;BME280;54877;51.504;3.894;2023-03-23T03:53:01;100140.19;;;14.49;64.10
66398;BME280;54877;51.504;3.894;2023-03-23T03:55:26;100127.84;;;14.48;64.11
66398;BME280;54877;51.504;3.894;2023-03-23T03:57:53;100129.53;;;14.49;64.28
66398;BME280;54877;51.504;3.894;2023-03-23T04:00:19;100125.91;;;14.50;64.24
66398;BME280;54877;51.504;3.894;2023-03-23T04:02:46;100132.94;;;14.51;64.20
66398;BME280;54877;51.504;3.894;2023-03-23T04:05:15;100130.75;;;14.56;64.14
66398;BME280;54877;51.504;3.894;2023-03-23T04:07:41;100120.53;;;14.39;64.31
66398;BME280;54877;51.504;3.894;2023-03-23T04:10:07;100125.91;;;14.50;63.86
66398;BME280;54877;51.504;3.894;2023-03-23T04:12:35;100124.19;;;14.38;64.28
66398;BME280;54877;51.504;3.894;2023-03-23T04:15:01;100132.19;;;14.38;64.13
66398;BME280;54877;51.504;3.894;2023-03-23T04:17:27;100129.06;;;14.44;64.16
66398;BME280;54877;51.504;3.894;2023-03-23T04:19:53;100132.66;;;14.32;64.62
66398;BME280;54877;51.504;3.894;2023-03-23T04:22:25;100138.94;;;14.42;64.11
66398;BME280;54877;51.504;3.894;2023-03-23T04:24:58;100150.47;;;14.42;64.21
66398;BME280;54877;51.504;3.894;2023-03-23T04:27:26;100146.06;;;14.30;64.55
66398;BME280;54877;51.504;3.894;2023-03-23T04:29:53;100144.28;;;14.42;64.32
66398;BME280;54877;51.504;3.894;2023-03-23T04:32:19;100140.03;;;14.39;64.40
66398;BME280;54877;51.504;3.894;2023-03-23T04:34:45;100152.03;;;14.45;64.34
66398;BME280;54877;51.504;3.894;2023-03-23T04:37:10;100142.84;;;14.38;64.69
66398;BME280;54877;51.504;3.894;2023-03-23T04:39:38;100137.88;;;14.33;64.95
66398;BME280;54877;51.504;3.894;2023-03-23T04:42:04;100142.13;;;14.36;64.98
66398;BME280;54877;51.504;3.894;2023-03-23T04:44:30;100141.84;;;14.39;65.12
66398;BME280;54877;51.504;3.894;2023-03-23T04:46:57;100136.28;;;14.42;64.83
66398;BME280;54877;51.504;3.894;2023-03-23T04:49:26;100136.88;;;14.34;65.03
66398;BME280;54877;51.504;3.894;2023-03-23T04:51:51;100142.78;;;14.27;65.16
66398;BME280;54877;51.504;3.894;2023-03-23T04:54:17;100148.38;;;14.35;64.75
66398;BME280;54877;51.504;3.894;2023-03-23T04:56:42;100150.63;;;14.28;65.23
66398;BME280;54877;51.504;3.894;2023-03-23T04:59:08;100166.19;;;14.34;64.93
66398;BME280;54877;51.504;3.894;2023-03-23T05:01:33;100163.94;;;14.28;65.12
66398;BME280;54877;51.504;3.894;2023-03-23T05:04:02;100170.31;;;14.38;65.19
66398;BME280;54877;51.504;3.894;2023-03-23T05:06:28;100168.19;;;14.31;65.15
66398;BME280;54877;51.504;3.894;2023-03-23T05:08:53;100184.66;;;14.25;65.46
66398;BME280;54877;51.504;3.894;2023-03-23T05:11:18;100182.16;;;14.10;65.78
66398;BME280;54877;51.504;3.894;2023-03-23T05:13:43;100178.28;;;14.14;65.77
66398;BME280;54877;51.504;3.894;2023-03-23T05:16:09;100182.63;;;14.04;66.20
66398;BME280;54877;51.504;3.894;2023-03-23T05:18:34;100183.16;;;14.21;66.25
66398;BME280;54877;51.504;3.894;2023-03-23T05:21:00;100189.28;;;14.10;66.54
66398;BME280;54877;51.504;3.894;2023-03-23T05:23:26;100204.31;;;14.11;66.68
66398;BME280;54877;51.504;3.894;2023-03-23T05:25:55;100194.13;;;14.05;67.00
66398;BME280;54877;51.504;3.894;2023-03-23T05:28:22;100200.50;;;14.02;67.23
66398;BME280;54877;51.504;3.894;2023-03-23T05:30:48;100202.97;;;14.05;67.02
66398;BME280;54877;51.504;3.894;2023-03-23T05:33:14;100195.34;;;14.12;66.88
66398;BME280;54877;51.504;3.894;2023-03-23T05:35:40;100200.50;;;14.02;67.19
66398;BME280;54877;51.504;3.894;2023-03-23T05:38:05;100207.25;;;13.95;67.61
66398;BME280;54877;51.504;3.894;2023-03-23T05:40:30;100209.81;;;13.97;67.84
66398;BME280;54877;51.504;3.894;2023-03-23T05:42:56;100207.53;;;14.03;67.53
66398;BME280;54877;51.504;3.894;2023-03-23T05:45:24;100217.31;;;14.03;67.62
66398;BME280;54877;51.504;3.894;2023-03-23T05:47:50;100227.13;;;14.02;67.84
66398;BME280;54877;51.504;3.894;2023-03-23T05:50:15;100233.63;;;13.98;68.00
66398;BME280;54877;51.504;3.894;2023-03-23T05:52:41;100234.41;;;13.88;68.43
66398;BME280;54877;51.504;3.894;2023-03-23T05:55:07;100234.56;;;13.97;68.01
66398;BME280;54877;51.504;3.894;2023-03-23T05:57:33;100232.38;;;13.91;68.37
66398;BME280;54877;51.504;3.894;2023-03-23T05:59:59;100243.63;;;13.95;68.21
66398;BME280;54877;51.504;3.894;2023-03-23T06:02:24;100236.56;;;13.83;68.70
66398;BME280;54877;51.504;3.894;2023-03-23T06:04:53;100240.16;;;13.94;68.52
66398;BME280;54877;51.504;3.894;2023-03-23T06:07:22;100243.25;;;13.88;68.65
66398;BME280;54877;51.504;3.894;2023-03-23T06:09:49;100249.31;;;13.90;68.54
66398;BME280;54877;51.504;3.894;2023-03-23T06:12:15;100243.03;;;13.91;68.68
66398;BME280;54877;51.504;3.894;2023-03-23T06:14:45;100234.34;;;14.00;68.45
66398;BME280;54877;51.504;3.894;2023-03-23T06:17:11;100246.31;;;13.95;68.45
66398;BME280;54877;51.504;3.894;2023-03-23T06:19:36;100251.31;;;13.99;68.43
66398;BME280;54877;51.504;3.894;2023-03-23T06:22:02;100244.19;;;14.00;68.38
66398;BME280;54877;51.504;3.894;2023-03-23T06:24:27;100254.41;;;13.93;68.67
66398;BME280;54877;51.504;3.894;2023-03-23T06:26:53;100265.72;;;13.84;68.54
66398;BME280;54877;51.504;3.894;2023-03-23T06:29:18;100267.84;;;13.79;68.82
66398;BME280;54877;51.504;3.894;2023-03-23T06:31:45;100270.88;;;13.75;68.70
66398;BME280;54877;51.504;3.894;2023-03-23T06:34:13;100265.25;;;13.67;69.04
66398;BME280;54877;51.504;3.894;2023-03-23T06:36:39;100272.22;;;13.80;68.54
66398;BME280;54877;51.504;3.894;2023-03-23T06:39:05;100256.50;;;13.77;68.67
66398;BME280;54877;51.504;3.894;2023-03-23T06:41:31;100256.56;;;13.76;68.76
66398;BME280;54877;51.504;3.894;2023-03-23T06:43:57;100267.63;;;13.82;68.36
66398;BME280;54877;51.504;3.894;2023-03-23T06:46:23;100271.94;;;13.72;68.89
66398;BME280;54877;51.504;3.894;2023-03-23T06:48:48;100283.00;;;13.66;68.95
66398;BME280;54877;51.504;3.894;2023-03-23T06:51:17;100275.97;;;13.65;68.85
66398;BME280;54877;51.504;3.894;2023-03-23T06:53:43;100282.56;;;13.72;68.55
66398;BME280;54877;51.504;3.894;2023-03-23T06:56:08;100294.28;;;13.70;68.59
66398;BME280;54877;51.504;3.894;2023-03-23T06:58:33;100288.84;;;13.71;68.63
66398;BME280;54877;51.504;3.894;2023-03-23T07:00:59;100277.06;;;13.50;68.74
66398;BME280;54877;51.504;3.894;2023-03-23T07:03:26;100281.19;;;13.67;68.33
66398;BME280;54877;51.504;3.894;2023-03-23T07:05:52;100278.13;;;13.60;68.62
66398;BME280;54877;51.504;3.894;2023-03-23T07:08:19;100294.16;;;13.71;68.41
66398;BME280;54877;51.504;3.894;2023-03-23T07:10:44;100285.09;;;13.74;68.31
66398;BME280;54877;51.504;3.894;2023-03-23T07:13:09;100290.00;;;13.67;68.10
66398;BME280;54877;51.504;3.894;2023-03-23T07:15:35;100291.19;;;13.63;68.07
66398;BME280;54877;51.504;3.894;2023-03-23T07:18:01;100290.47;;;13.61;67.96
66398;BME280;54877;51.504;3.894;2023-03-23T07:20:27;100285.66;;;13.66;67.67
66398;BME280;54877;51.504;3.894;2023-03-23T07:22:53;100289.06;;;13.68;67.38
66398;BME280;54877;51.504;3.894;2023-03-23T07:25:19;100292.75;;;13.78;67.01
66398;BME280;54877;51.504;3.894;2023-03-23T07:27:44;100285.63;;;13.79;66.87
66398;BME280;54877;51.504;3.894;2023-03-23T07:30:11;100288.41;;;13.77;66.80
66398;BME280;54877;51.504;3.894;2023-03-23T07:32:37;100286.34;;;13.81;66.72
66398;BME280;54877;51.504;3.894;2023-03-23T07:35:02;100300.94;;;13.88;65.78
66398;BME280;54877;51.504;3.894;2023-03-23T07:37:28;100298.91;;;13.91;65.57
66398;BME280;54877;51.504;3.894;2023-03-23T07:39:54;100300.00;;;13.89;65.96
66398;BME280;54877;51.504;3.894;2023-03-23T07:42:19;100303.78;;;13.97;65.68
66398;BME280;54877;51.504;3.894;2023-03-23T07:44:44;100304.63;;;13.98;65.45
66398;BME280;54877;51.504;3.894;2023-03-23T07:47:10;100301.88;;;13.99;65.59
66398;BME280;54877;51.504;3.894;2023-03-23T07:49:35;100313.19;;;13.90;65.41
66398;BME280;54877;51.504;3.894;2023-03-23T07:52:02;100314.31;;;13.99;65.06
66398;BME280;54877;51.504;3.894;2023-03-23T07:54:27;100320.50;;;13.99;65.01
66398;BME280;54877;51.504;3.894;2023-03-23T07:56:53;100322.66;;;13.94;64.81
66398;BME280;54877;51.504;3.894;2023-03-23T07:59:19;100319.66;;;13.86;64.53
66398;BME280;54877;51.504;3.894;2023-03-23T08:01:45;100321.97;;;14.03;64.17
66398;BME280;54877;51.504;3.894;2023-03-23T08:04:10;100329.44;;;14.11;63.81
66398;BME280;54877;51.504;3.894;2023-03-23T08:06:38;100330.03;;;14.14;63.85
66398;BME280;54877;51.504;3.894;2023-03-23T08:09:04;100334.84;;;14.09;63.45
66398;BME280;54877;51.504;3.894;2023-03-23T08:11:33;100328.97;;;14.17;63.61
66398;BME280;54877;51.504;3.894;2023-03-23T08:13:59;100332.88;;;14.24;63.49
66398;BME280;54877;51.504;3.894;2023-03-23T08:16:25;100328.97;;;14.17;63.12
66398;BME280;54877;51.504;3.894;2023-03-23T08:18:50;100327.22;;;14.29;63.37
66398;BME280;54877;51.504;3.894;2023-03-23T08:21:16;100330.75;;;14.29;63.40
66398;BME280;54877;51.504;3.894;2023-03-23T08:23:42;100334.47;;;14.27;63.19
66398;BME280;54877;51.504;3.894;2023-03-23T08:26:08;100336.50;;;14.23;63.11
66398;BME280;54877;51.504;3.894;2023-03-23T08:28:35;100332.56;;;14.41;62.83
66398;BME280;54877;51.504;3.894;2023-03-23T08:31:08;100338.75;;;14.53;62.59
66398;BME280;54877;51.504;3.894;2023-03-23T08:33:38;100329.16;;;14.63;62.47
66398;BME280;54877;51.504;3.894;2023-03-23T08:36:04;100333.22;;;14.56;62.17
66398;BME280;54877;51.504;3.894;2023-03-23T08:38:30;100325.59;;;14.39;62.27
66398;BME280;54877;51.504;3.894;2023-03-23T08:41:03;100324.72;;;14.51;62.67
66398;BME280;54877;51.504;3.894;2023-03-23T08:43:30;100323.31;;;14.58;62.24
66398;BME280;54877;51.504;3.894;2023-03-23T08:45:57;100329.59;;;14.57;62.17
66398;BME280;54877;51.504;3.894;2023-03-23T08:48:23;100330.88;;;14.75;62.14
66398;BME280;54877;51.504;3.894;2023-03-23T08:50:49;100337.69;;;14.55;62.26
66398;BME280;54877;51.504;3.894;2023-03-23T08:53:16;100331.44;;;14.67;61.91
66398;BME280;54877;51.504;3.894;2023-03-23T08:55:41;100331.34;;;14.69;61.60
66398;BME280;54877;51.504;3.894;2023-03-23T08:58:07;100329.28;;;14.73;61.49
66398;BME280;54877;51.504;3.894;2023-03-23T09:00:34;100328.44;;;14.72;61.31
66398;BME280;54877;51.504;3.894;2023-03-23T09:02:59;100336.50;;;14.94;60.73
66398;BME280;54877;51.504;3.894;2023-03-23T09:05:26;100325.66;;;15.08;60.37
66398;BME280;54877;51.504;3.894;2023-03-23T09:07:53;100330.66;;;15.13;60.79
66398;BME280;54877;51.504;3.894;2023-03-23T09:10:23;100337.88;;;15.00;61.06
66398;BME280;54877;51.504;3.894;2023-03-23T09:12:49;100343.38;;;15.09;61.15
66398;BME280;54877;51.504;3.894;2023-03-23T09:15:16;100339.72;;;14.99;60.94
66398;BME280;54877;51.504;3.894;2023-03-23T09:17:44;100348.78;;;15.08;60.11
66398;BME280;54877;51.504;3.894;2023-03-23T09:20:13;100358.44;;;15.21;60.20
66398;BME280;54877;51.504;3.894;2023-03-23T09:22:43;100352.03;;;15.24;59.82
66398;BME280;54877;51.504;3.894;2023-03-23T09:25:12;100360.88;;;15.36;59.53
66398;BME280;54877;51.504;3.894;2023-03-23T09:27:39;100350.81;;;15.39;59.66
66398;BME280;54877;51.504;3.894;2023-03-23T09:30:07;100352.25;;;15.21;59.66
66398;BME280;54877;51.504;3.894;2023-03-23T09:32:35;100350.78;;;15.17;59.60
66398;BME280;54877;51.504;3.894;2023-03-23T09:35:02;100348.13;;;15.28;59.73
66398;BME280;54877;51.504;3.894;2023-03-23T09:37:28;100352.84;;;15.59;59.52
66398;BME280;54877;51.504;3.894;2023-03-23T09:39:54;100358.28;;;15.80;58.75
66398;BME280;54877;51.504;3.894;2023-03-23T09:45:15;100363.53;;;16.15;57.84
66398;BME280;54877;51.504;3.894;2023-03-23T09:50:19;100370.91;;;16.11;57.23
66398;BME280;54877;51.504;3.894;2023-03-23T09:55:45;100364.88;;;15.87;57.73
66398;BME280;54877;51.504;3.894;2023-03-23T09:58:20;100354.66;;;15.92;57.61
66398;BME280;54877;51.504;3.894;2023-03-23T10:00:56;100359.38;;;16.11;57.49
66398;BME280;54877;51.504;3.894;2023-03-23T10:03:31;100359.75;;;15.95;57.92
66398;BME280;54877;51.504;3.894;2023-03-23T10:06:02;100358.06;;;15.94;58.14
66398;BME280;54877;51.504;3.894;2023-03-23T10:08:29;100369.81;;;16.14;57.52
66398;BME280;54877;51.504;3.894;2023-03-23T10:13:30;100368.97;;;15.91;58.55
66398;BME280;54877;51.504;3.894;2023-03-23T10:16:20;100367.41;;;16.00;58.18
66398;BME280;54877;51.504;3.894;2023-03-23T10:21:51;100373.09;;;16.17;57.22
66398;BME280;54877;51.504;3.894;2023-03-23T10:24:24;100374.56;;;15.88;57.38
66398;BME280;54877;51.504;3.894;2023-03-23T10:27:00;100369.34;;;15.86;57.74
66398;BME280;54877;51.504;3.894;2023-03-23T10:29:59;100351.63;;;15.85;57.98
66398;BME280;54877;51.504;3.894;2023-03-23T10:32:43;100360.72;;;16.05;57.24
66398;BME280;54877;51.504;3.894;2023-03-23T10:35:16;100363.63;;;16.13;57.03
66398;BME280;54877;51.504;3.894;2023-03-23T10:37:50;100369.81;;;16.14;56.73
66398;BME280;54877;51.504;3.894;2023-03-23T10:40:23;100363.88;;;16.10;56.69
66398;BME280;54877;51.504;3.894;2023-03-23T10:42:52;100362.91;;;16.00;56.79
66398;BME280;54877;51.504;3.894;2023-03-23T10:50:38;100380.50;;;15.80;57.75
66398;BME280;54877;51.504;3.894;2023-03-23T10:53:13;100382.06;;;15.72;58.40
66398;BME280;54877;51.504;3.894;2023-03-23T10:55:41;100388.88;;;15.87;58.27
66398;BME280;54877;51.504;3.894;2023-03-23T10:58:10;100389.25;;;15.94;58.27
66398;BME280;54877;51.504;3.894;2023-03-23T11:00:43;100397.84;;;15.86;58.50
66398;BME280;54877;51.504;3.894;2023-03-23T11:08:24;100389.56;;;16.44;57.95
66398;BME280;54877;51.504;3.894;2023-03-23T11:11:11;100394.53;;;16.49;57.37
66398;BME280;54877;51.504;3.894;2023-03-23T11:13:42;100363.69;;;16.67;57.20
66398;BME280;54877;51.504;3.894;2023-03-23T11:16:10;100364.56;;;16.88;56.24
66398;BME280;54877;51.504;3.894;2023-03-23T11:18:46;100355.38;;;17.02;55.82
66398;BME280;54877;51.504;3.894;2023-03-23T11:21:12;100359.72;;;17.14;55.51
66398;BME280;54877;51.504;3.894;2023-03-23T11:23:40;100355.47;;;17.12;55.59
66398;BME280;54877;51.504;3.894;2023-03-23T11:28:56;100351.41;;;17.38;55.79
66398;BME280;54877;51.504;3.894;2023-03-23T11:31:27;100358.84;;;17.34;55.93
66398;BME280;54877;51.504;3.894;2023-03-23T11:33:59;100353.56;;;17.23;56.43
66398;BME280;54877;51.504;3.894;2023-03-23T11:36:36;100367.78;;;17.03;57.70
66398;BME280;54877;51.504;3.894;2023-03-23T11:39:25;100362.66;;;17.11;57.89
66398;BME280;54877;51.504;3.894;2023-03-23T11:41:57;100371.84;;;17.18;57.50
66398;BME280;54877;51.504;3.894;2023-03-23T11:44:24;100368.91;;;17.21;57.45
66398;BME280;54877;51.504;3.894;2023-03-23T11:47:01;100352.59;;;17.24;55.69
66398;BME280;54877;51.504;3.894;2023-03-23T11:53:00;100341.91;;;17.24;54.08
66398;BME280;54877;51.504;3.894;2023-03-23T11:55:49;100359.84;;;17.54;53.57
66398;BME280;54877;51.504;3.894;2023-03-23T11:58:19;100354.84;;;17.60;53.96
66398;BME280;54877;51.504;3.894;2023-03-23T12:06:06;100352.06;;;18.02;51.93
66398;BME280;54877;51.504;3.894;2023-03-23T12:16:46;100369.38;;;17.47;52.69
66398;BME280;54877;51.504;3.894;2023-03-23T12:19:19;100350.91;;;17.44;53.72
66398;BME280;54877;51.504;3.894;2023-03-23T12:24:34;100381.56;;;17.19;54.68
66398;BME280;54877;51.504;3.894;2023-03-23T12:30:49;100370.31;;;16.84;58.79
66398;BME280;54877;51.504;3.894;2023-03-23T12:36:57;100370.56;;;16.81;57.91
66398;BME280;54877;51.504;3.894;2023-03-23T12:39:12;100383.50;;;16.65;56.20
66398;BME280;54877;51.504;3.894;2023-03-23T12:41:43;100386.91;;;16.87;55.40
66398;BME280;54877;51.504;3.894;2023-03-23T12:44:21;100391.41;;;16.98;54.95
66398;BME280;54877;51.504;3.894;2023-03-23T12:49:43;100393.34;;;17.28;53.12
66398;BME280;54877;51.504;3.894;2023-03-23T12:54:48;100387.97;;;17.48;51.98
66398;BME280;54877;51.504;3.894;2023-03-23T13:05:43;100402.72;;;17.43;52.73
66398;BME280;54877;51.504;3.894;2023-03-23T13:08:21;100408.13;;;17.32;53.27
66398;BME280;54877;51.504;3.894;2023-03-23T13:10:52;100410.28;;;17.38;53.79
66398;BME280;54877;51.504;3.894;2023-03-23T13:13:21;100394.28;;;17.58;53.76
66398;BME280;54877;51.504;3.894;2023-03-23T13:21:30;100363.16;;;17.88;52.96
66398;BME280;54877;51.504;3.894;2023-03-23T13:26:22;100354.56;;;17.94;52.63
66398;BME280;54877;51.504;3.894;2023-03-23T13:28:59;100353.03;;;18.01;53.49
66398;BME280;54877;51.504;3.894;2023-03-23T13:31:30;100343.16;;;17.92;54.01
66398;BME280;54877;51.504;3.894;2023-03-23T13:33:59;100349.13;;;18.14;54.01
66398;BME280;54877;51.504;3.894;2023-03-23T13:36:27;100339.69;;;18.10;53.70
66398;BME280;54877;51.504;3.894;2023-03-23T13:38:59;100339.53;;;18.12;53.99
66398;BME280;54877;51.504;3.894;2023-03-23T13:41:28;100342.78;;;18.06;54.24
66398;BME280;54877;51.504;3.894;2023-03-23T13:44:04;100348.47;;;18.22;54.83
66398;BME280;54877;51.504;3.894;2023-03-23T13:46:41;100342.78;;;18.06;53.48
66398;BME280;54877;51.504;3.894;2023-03-23T13:49:15;100334.19;;;18.12;53.22
66398;BME280;54877;51.504;3.894;2023-03-23T13:51:52;100320.50;;;18.05;54.11
66398;BME280;54877;51.504;3.894;2023-03-23T13:54:42;100336.22;;;18.29;52.69
66398;BME280;54877;51.504;3.894;2023-03-23T13:57:32;100325.34;;;18.21;52.88
66398;BME280;54877;51.504;3.894;2023-03-23T14:00:11;100319.59;;;18.45;52.84
66398;BME280;54877;51.504;3.894;2023-03-23T14:02:49;100308.88;;;18.35;51.59
66398;BME280;54877;51.504;3.894;2023-03-23T14:10:36;100295.53;;;18.54;49.79
66398;BME280;54877;51.504;3.894;2023-03-23T14:13:05;100285.03;;;18.23;49.86
66398;BME280;54877;51.504;3.894;2023-03-23T14:15:53;100280.09;;;18.28;50.25
66398;BME280;54877;51.504;3.894;2023-03-23T14:18:21;100281.69;;;18.49;49.82
66398;BME280;54877;51.504;3.894;2023-03-23T14:20:50;100290.81;;;18.37;48.86
66398;BME280;54877;51.504;3.894;2023-03-23T14:23:16;100287.44;;;18.35;48.83
66398;BME280;54877;51.504;3.894;2023-03-23T14:25:43;100272.91;;;18.47;48.67
66398;BME280;54877;51.504;3.894;2023-03-23T14:28:16;100274.78;;;18.66;48.92
66398;BME280;54877;51.504;3.894;2023-03-23T14:30:47;100274.63;;;18.67;47.88
66398;BME280;54877;51.504;3.894;2023-03-23T14:33:17;100275.06;;;18.72;48.02
66398;BME280;54877;51.504;3.894;2023-03-23T14:35:44;100279.03;;;18.68;47.83
66398;BME280;54877;51.504;3.894;2023-03-23T14:38:14;100276.19;;;18.70;47.12
66398;BME280;54877;51.504;3.894;2023-03-23T14:40:43;100260.94;;;18.70;47.18
66398;BME280;54877;51.504;3.894;2023-03-23T14:43:10;100264.34;;;18.63;47.07
66398;BME280;54877;51.504;3.894;2023-03-23T14:45:38;100254.72;;;18.70;47.10